sensor_id;sensor_type;location;lat;lon;timestamp;pressure;altitude;pressure_sealevel;temperature;humidity
67803;BME280;54601;51.378;-1.342;2022-12-07T00:00:53;101031.80;;;17.70;29.22
67803;BME280;54601;51.378;-1.342;2022-12-07T00:03:18;101030.67;;;17.82;29.30
67803;BME280;54601;51.378;-1.342;2022-12-07T00:05:44;101031.81;;;17.57;29.34
67803;BME280;54601;51.378;-1.342;2022-12-07T00:08:09;101031.49;;;17.75;29.33
67803;BME280;54601;51.378;-1.342;2022-12-07T00:10:34;101030.02;;;17.73;29.33
67803;BME280;54601;51.378;-1.342;2022-12-07T00:12:59;101032.51;;;17.52;29.27
67803;BME280;54601;51.378;-1.342;2022-12-07T00:15:25;101032.40;;;17.49;29.25
67803;BME280;54601;51.378;-1.342;2022-12-07T00:17:50;101033.91;;;17.73;29.34
67803;BME280;54601;51.378;-1.342;2022-12-07T00:20:15;101029.26;;;17.76;29.32
67803;BME280;54601;51.378;-1.342;2022-12-07T00:22:40;101027.25;;;17.46;29.34
67803;BME280;54601;51.378;-1.342;2022-12-07T00:25:06;101029.34;;;17.79;29.22
67803;BME280;54601;51.378;-1.342;2022-12-07T00:27:31;101024.73;;;17.77;29.30
67803;BME280;54601;51.378;-1.342;2022-12-07T00:29:56;101025.92;;;17.55;29.14
67803;BME280;54601;51.378;-1.342;2022-12-07T00:32:21;101026.00;;;17.55;29.16
67803;BME280;54601;51.378;-1.342;2022-12-07T00:34:46;101028.11;;;17.76;29.28
67803;BME280;54601;51.378;-1.342;2022-12-07T00:37:12;101024.41;;;17.79;29.14
67803;BME280;54601;51.378;-1.342;2022-12-07T00:39:37;101022.61;;;17.71;29.25
67803;BME280;54601;51.378;-1.342;2022-12-07T00:42:02;101018.93;;;17.74;29.19
67803;BME280;54601;51.378;-1.342;2022-12-07T00:44:27;101018.29;;;17.70;29.24
67803;BME280;54601;51.378;-1.342;2022-12-07T00:46:53;101019.53;;;17.42;29.26
67803;BME280;54601;51.378;-1.342;2022-12-07T00:49:18;101017.80;;;17.41;29.20
67803;BME280;54601;51.378;-1.342;2022-12-07T00:51:43;101013.91;;;17.46;29.12
67803;BME280;54601;51.378;-1.342;2022-12-07T00:54:08;101013.18;;;17.67;29.18
67803;BME280;54601;51.378;-1.342;2022-12-07T00:56:34;101011.98;;;17.74;29.18
67803;BME280;54601;51.378;-1.342;2022-12-07T00:59:01;101005.75;;;17.43;29.13
67803;BME280;54601;51.378;-1.342;2022-12-07T01:01:26;101009.72;;;17.62;29.23
67803;BME280;54601;51.378;-1.342;2022-12-07T01:03:49;101009.09;;;17.42;29.12
67803;BME280;54601;51.378;-1.342;2022-12-07T01:06:16;101006.61;;;17.63;29.18
67803;BME280;54601;51.378;-1.342;2022-12-07T01:08:40;101008.57;;;17.37;29.12
67803;BME280;54601;51.378;-1.342;2022-12-07T01:11:07;101009.53;;;17.61;29.23
67803;BME280;54601;51.378;-1.342;2022-12-07T01:13:30;101006.03;;;17.32;29.22
67803;BME280;54601;51.378;-1.342;2022-12-07T01:15:57;101001.76;;;17.58;29.22
67803;BME280;54601;51.378;-1.342;2022-12-07T01:18:21;100998.15;;;17.63;29.17
67803;BME280;54601;51.378;-1.342;2022-12-07T01:23:11;100993.32;;;17.61;29.11
67803;BME280;54601;51.378;-1.342;2022-12-07T01:25:36;100992.16;;;17.60;29.22
67803;BME280;54601;51.378;-1.342;2022-12-07T01:28:02;100993.09;;;17.65;29.05
67803;BME280;54601;51.378;-1.342;2022-12-07T01:30:27;100993.08;;;17.57;29.11
67803;BME280;54601;51.378;-1.342;2022-12-07T01:32:52;100995.73;;;17.84;29.07
67803;BME280;54601;51.378;-1.342;2022-12-07T01:35:17;100995.90;;;17.63;29.05
67803;BME280;54601;51.378;-1.342;2022-12-07T01:37:43;100995.48;;;17.58;29.07
67803;BME280;54601;51.378;-1.342;2022-12-07T01:40:09;100995.58;;;17.56;29.15
67803;BME280;54601;51.378;-1.342;2022-12-07T01:42:33;100989.92;;;17.53;29.12
67803;BME280;54601;51.378;-1.342;2022-12-07T01:47:23;100989.16;;;17.51;29.09
67803;BME280;54601;51.378;-1.342;2022-12-07T01:49:49;100985.98;;;17.45;29.20
67803;BME280;54601;51.378;-1.342;2022-12-07T01:52:17;100988.39;;;17.44;29.27
67803;BME280;54601;51.378;-1.342;2022-12-07T01:54:39;100985.96;;;17.56;29.06
67803;BME280;54601;51.378;-1.342;2022-12-07T01:57:05;100985.36;;;17.71;28.87
67803;BME280;54601;51.378;-1.342;2022-12-07T01:59:30;100988.35;;;17.74;28.85
67803;BME280;54601;51.378;-1.342;2022-12-07T02:01:56;100989.00;;;17.71;28.76
67803;BME280;54601;51.378;-1.342;2022-12-07T02:04:21;100989.50;;;17.73;28.77
67803;BME280;54601;51.378;-1.342;2022-12-07T02:06:46;100992.80;;;17.66;28.82
67803;BME280;54601;51.378;-1.342;2022-12-07T02:09:11;100992.67;;;17.59;28.87
67803;BME280;54601;51.378;-1.342;2022-12-07T02:11:36;100993.17;;;17.56;28.94
67803;BME280;54601;51.378;-1.342;2022-12-07T02:14:01;100995.25;;;17.55;28.93
67803;BME280;54601;51.378;-1.342;2022-12-07T02:16:32;100993.88;;;17.50;29.01
67803;BME280;54601;51.378;-1.342;2022-12-07T02:19:06;100992.05;;;17.16;29.05
67803;BME280;54601;51.378;-1.342;2022-12-07T02:21:22;100990.39;;;17.57;28.83
67803;BME280;54601;51.378;-1.342;2022-12-07T02:23:58;100990.82;;;17.80;28.85
67803;BME280;54601;51.378;-1.342;2022-12-07T02:26:27;100986.51;;;17.25;28.96
67803;BME280;54601;51.378;-1.342;2022-12-07T02:28:35;100985.59;;;17.28;28.87
67803;BME280;54601;51.378;-1.342;2022-12-07T02:31:02;100990.48;;;17.49;28.91
67803;BME280;54601;51.378;-1.342;2022-12-07T02:33:27;100990.38;;;17.47;28.91
67803;BME280;54601;51.378;-1.342;2022-12-07T02:35:53;100991.55;;;17.48;28.91
67803;BME280;54601;51.378;-1.342;2022-12-07T02:38:17;100991.81;;;17.42;28.97
67803;BME280;54601;51.378;-1.342;2022-12-07T02:40:41;100990.52;;;17.48;28.88
67803;BME280;54601;51.378;-1.342;2022-12-07T02:43:08;100986.47;;;17.45;28.89
67803;BME280;54601;51.378;-1.342;2022-12-07T02:45:31;100985.90;;;17.37;29.01
67803;BME280;54601;51.378;-1.342;2022-12-07T02:47:57;100983.69;;;17.45;28.82
67803;BME280;54601;51.378;-1.342;2022-12-07T02:50:20;100979.82;;;17.42;28.83
67803;BME280;54601;51.378;-1.342;2022-12-07T02:52:45;100976.73;;;17.42;28.84
67803;BME280;54601;51.378;-1.342;2022-12-07T02:55:11;100979.08;;;17.33;28.92
67803;BME280;54601;51.378;-1.342;2022-12-07T02:57:47;100981.27;;;17.35;28.90
67803;BME280;54601;51.378;-1.342;2022-12-07T03:00:05;100981.07;;;17.35;28.86
67803;BME280;54601;51.378;-1.342;2022-12-07T03:02:34;100976.36;;;17.06;28.98
67803;BME280;54601;51.378;-1.342;2022-12-07T03:04:59;100972.52;;;17.42;28.81
67803;BME280;54601;51.378;-1.342;2022-12-07T03:07:24;100965.67;;;17.25;29.00
67803;BME280;54601;51.378;-1.342;2022-12-07T03:09:45;100965.93;;;17.35;28.88
67803;BME280;54601;51.378;-1.342;2022-12-07T03:12:10;100967.98;;;17.27;28.99
67803;BME280;54601;51.378;-1.342;2022-12-07T03:14:35;100966.99;;;17.35;28.78
67803;BME280;54601;51.378;-1.342;2022-12-07T03:17:02;100971.67;;;17.35;28.82
67803;BME280;54601;51.378;-1.342;2022-12-07T03:19:24;100974.56;;;17.38;28.72
67803;BME280;54601;51.378;-1.342;2022-12-07T03:21:53;100973.99;;;17.29;28.83
67803;BME280;54601;51.378;-1.342;2022-12-07T03:24:17;100973.93;;;17.28;28.80
67803;BME280;54601;51.378;-1.342;2022-12-07T03:26:42;100972.26;;;17.29;28.82
67803;BME280;54601;51.378;-1.342;2022-12-07T03:29:07;100972.10;;;17.70;28.84
67803;BME280;54601;51.378;-1.342;2022-12-07T03:31:31;100973.45;;;17.27;28.93
67803;BME280;54601;51.378;-1.342;2022-12-07T03:33:59;100971.40;;;17.24;28.83
67803;BME280;54601;51.378;-1.342;2022-12-07T03:36:23;100969.45;;;17.29;28.87
67803;BME280;54601;51.378;-1.342;2022-12-07T03:38:48;100965.41;;;17.21;28.89
67803;BME280;54601;51.378;-1.342;2022-12-07T03:41:14;100966.38;;;17.25;28.87
67803;BME280;54601;51.378;-1.342;2022-12-07T03:43:37;100965.47;;;17.22;28.86
67803;BME280;54601;51.378;-1.342;2022-12-07T03:46:07;100968.07;;;17.23;28.84
67803;BME280;54601;51.378;-1.342;2022-12-07T03:48:30;100964.31;;;17.23;28.87
67803;BME280;54601;51.378;-1.342;2022-12-07T03:50:58;100960.49;;;17.25;28.75
67803;BME280;54601;51.378;-1.342;2022-12-07T03:53:19;100955.39;;;17.21;28.85
67803;BME280;54601;51.378;-1.342;2022-12-07T03:55:44;100952.98;;;17.36;28.90
67803;BME280;54601;51.378;-1.342;2022-12-07T03:58:10;100950.08;;;17.12;28.98
67803;BME280;54601;51.378;-1.342;2022-12-07T04:00:33;100950.79;;;17.22;28.76
67803;BME280;54601;51.378;-1.342;2022-12-07T04:02:58;100952.18;;;17.13;28.85
67803;BME280;54601;51.378;-1.342;2022-12-07T04:05:23;100951.23;;;17.24;28.75
67803;BME280;54601;51.378;-1.342;2022-12-07T04:07:48;100951.53;;;17.17;28.84
67803;BME280;54601;51.378;-1.342;2022-12-07T04:10:13;100953.67;;;17.16;28.84
67803;BME280;54601;51.378;-1.342;2022-12-07T04:12:38;100952.80;;;17.19;28.81
67803;BME280;54601;51.378;-1.342;2022-12-07T04:15:05;100948.44;;;17.17;28.86
67803;BME280;54601;51.378;-1.342;2022-12-07T04:17:29;100945.87;;;17.43;28.75
67803;BME280;54601;51.378;-1.342;2022-12-07T04:19:54;100951.61;;;17.16;28.79
67803;BME280;54601;51.378;-1.342;2022-12-07T04:22:20;100948.61;;;17.15;28.84
67803;BME280;54601;51.378;-1.342;2022-12-07T04:24:45;100947.85;;;17.14;28.79
67803;BME280;54601;51.378;-1.342;2022-12-07T04:27:10;100950.02;;;17.07;28.88
67803;BME280;54601;51.378;-1.342;2022-12-07T04:29:35;100948.05;;;17.12;28.78
67803;BME280;54601;51.378;-1.342;2022-12-07T04:32:00;100946.41;;;17.08;28.89
67803;BME280;54601;51.378;-1.342;2022-12-07T04:34:26;100946.14;;;17.08;28.88
67803;BME280;54601;51.378;-1.342;2022-12-07T04:36:51;100944.77;;;17.31;28.77
67803;BME280;54601;51.378;-1.342;2022-12-07T04:39:19;100945.73;;;17.47;28.84
67803;BME280;54601;51.378;-1.342;2022-12-07T04:41:42;100945.62;;;17.08;28.76
67803;BME280;54601;51.378;-1.342;2022-12-07T04:44:07;100947.01;;;17.13;28.72
67803;BME280;54601;51.378;-1.342;2022-12-07T04:46:32;100946.78;;;17.07;28.82
67803;BME280;54601;51.378;-1.342;2022-12-07T04:48:58;100943.32;;;17.30;28.75
67803;BME280;54601;51.378;-1.342;2022-12-07T04:51:25;100938.64;;;16.99;28.83
67803;BME280;54601;51.378;-1.342;2022-12-07T04:53:48;100935.90;;;16.93;28.86
67803;BME280;54601;51.378;-1.342;2022-12-07T04:56:13;100936.77;;;17.20;28.79
67803;BME280;54601;51.378;-1.342;2022-12-07T04:58:38;100940.30;;;17.01;28.83
67803;BME280;54601;51.378;-1.342;2022-12-07T05:01:03;100939.69;;;17.01;28.76
67803;BME280;54601;51.378;-1.342;2022-12-07T05:03:29;100940.09;;;16.93;28.97
67803;BME280;54601;51.378;-1.342;2022-12-07T05:05:54;100940.52;;;17.04;28.83
67803;BME280;54601;51.378;-1.342;2022-12-07T05:08:19;100930.46;;;16.97;28.81
67803;BME280;54601;51.378;-1.342;2022-12-07T05:10:45;100928.83;;;17.02;28.84
67803;BME280;54601;51.378;-1.342;2022-12-07T05:13:10;100927.51;;;17.19;28.79
67803;BME280;54601;51.378;-1.342;2022-12-07T05:15:35;100925.36;;;16.96;28.85
67803;BME280;54601;51.378;-1.342;2022-12-07T05:18:00;100923.53;;;17.22;28.77
67803;BME280;54601;51.378;-1.342;2022-12-07T05:20:26;100924.94;;;16.94;28.90
67803;BME280;54601;51.378;-1.342;2022-12-07T05:22:51;100927.47;;;17.04;28.71
67803;BME280;54601;51.378;-1.342;2022-12-07T05:25:16;100919.36;;;17.19;28.79
67803;BME280;54601;51.378;-1.342;2022-12-07T05:27:42;100922.56;;;16.95;28.90
67803;BME280;54601;51.378;-1.342;2022-12-07T05:30:08;100919.94;;;16.96;28.76
67803;BME280;54601;51.378;-1.342;2022-12-07T05:32:32;100918.29;;;17.38;28.86
67803;BME280;54601;51.378;-1.342;2022-12-07T05:34:57;100923.92;;;16.95;28.89
67803;BME280;54601;51.378;-1.342;2022-12-07T05:37:23;100925.06;;;17.15;28.78
67803;BME280;54601;51.378;-1.342;2022-12-07T05:39:48;100927.15;;;17.15;28.87
67803;BME280;54601;51.378;-1.342;2022-12-07T05:42:13;100932.36;;;16.90;28.84
67803;BME280;54601;51.378;-1.342;2022-12-07T05:44:39;100930.03;;;17.16;28.76
67803;BME280;54601;51.378;-1.342;2022-12-07T05:47:04;100927.48;;;17.07;28.69
67803;BME280;54601;51.378;-1.342;2022-12-07T05:49:29;100924.09;;;17.22;28.70
67803;BME280;54601;51.378;-1.342;2022-12-07T05:51:54;100925.05;;;17.16;28.83
67803;BME280;54601;51.378;-1.342;2022-12-07T05:54:19;100920.56;;;17.24;28.72
67803;BME280;54601;51.378;-1.342;2022-12-07T05:56:44;100918.05;;;17.04;28.67
67803;BME280;54601;51.378;-1.342;2022-12-07T05:59:10;100915.81;;;17.15;28.56
67803;BME280;54601;51.378;-1.342;2022-12-07T06:01:35;100914.30;;;17.01;28.70
67803;BME280;54601;51.378;-1.342;2022-12-07T06:04:00;100916.04;;;17.31;28.69
67803;BME280;54601;51.378;-1.342;2022-12-07T06:06:25;100917.96;;;17.07;28.67
67803;BME280;54601;51.378;-1.342;2022-12-07T06:08:50;100919.24;;;17.22;28.71
67803;BME280;54601;51.378;-1.342;2022-12-07T06:11:15;100919.31;;;17.08;28.63
67803;BME280;54601;51.378;-1.342;2022-12-07T06:13:41;100918.14;;;17.37;28.56
67803;BME280;54601;51.378;-1.342;2022-12-07T06:16:06;100912.58;;;17.02;28.67
67803;BME280;54601;51.378;-1.342;2022-12-07T06:18:31;100909.63;;;16.92;28.85
67803;BME280;54601;51.378;-1.342;2022-12-07T06:20:56;100910.34;;;17.57;28.53
67803;BME280;54601;51.378;-1.342;2022-12-07T06:23:21;100910.00;;;17.31;28.68
67803;BME280;54601;51.378;-1.342;2022-12-07T06:25:47;100914.02;;;17.21;28.50
67803;BME280;54601;51.378;-1.342;2022-12-07T06:28:12;100913.93;;;17.23;28.46
67803;BME280;54601;51.378;-1.342;2022-12-07T06:30:37;100913.69;;;17.18;28.54
67803;BME280;54601;51.378;-1.342;2022-12-07T06:33:02;100918.08;;;17.27;28.50
67803;BME280;54601;51.378;-1.342;2022-12-07T06:35:27;100920.23;;;17.44;28.63
67803;BME280;54601;51.378;-1.342;2022-12-07T06:37:53;100919.43;;;17.29;28.48
67803;BME280;54601;51.378;-1.342;2022-12-07T06:40:18;100923.98;;;17.19;28.59
67803;BME280;54601;51.378;-1.342;2022-12-07T06:42:43;100923.68;;;17.25;28.59
67803;BME280;54601;51.378;-1.342;2022-12-07T06:45:09;100920.90;;;17.27;28.49
67803;BME280;54601;51.378;-1.342;2022-12-07T06:47:33;100920.14;;;17.42;28.64
67803;BME280;54601;51.378;-1.342;2022-12-07T06:49:58;100915.94;;;17.30;28.42
67803;BME280;54601;51.378;-1.342;2022-12-07T06:52:24;100921.70;;;17.09;28.75
67803;BME280;54601;51.378;-1.342;2022-12-07T06:54:49;100917.19;;;17.39;28.15
67803;BME280;54601;51.378;-1.342;2022-12-07T06:57:14;100917.51;;;17.60;28.05
67803;BME280;54601;51.378;-1.342;2022-12-07T06:59:39;100921.41;;;17.43;28.34
67803;BME280;54601;51.378;-1.342;2022-12-07T07:02:05;100929.12;;;17.34;28.39
67803;BME280;54601;51.378;-1.342;2022-12-07T07:04:30;100925.98;;;17.47;28.23
67803;BME280;54601;51.378;-1.342;2022-12-07T07:06:55;100927.33;;;17.29;28.38
67803;BME280;54601;51.378;-1.342;2022-12-07T07:09:20;100916.01;;;17.36;28.36
67803;BME280;54601;51.378;-1.342;2022-12-07T07:11:45;100919.63;;;17.54;28.40
67803;BME280;54601;51.378;-1.342;2022-12-07T07:14:11;100921.76;;;17.64;28.51
67803;BME280;54601;51.378;-1.342;2022-12-07T07:16:36;100916.91;;;17.27;28.49
67803;BME280;54601;51.378;-1.342;2022-12-07T07:19:01;100914.48;;;17.28;28.49
67803;BME280;54601;51.378;-1.342;2022-12-07T07:21:26;100917.44;;;17.61;28.33
67803;BME280;54601;51.378;-1.342;2022-12-07T07:23:52;100915.16;;;17.39;28.40
67803;BME280;54601;51.378;-1.342;2022-12-07T07:26:17;100922.46;;;17.77;28.46
67803;BME280;54601;51.378;-1.342;2022-12-07T07:28:42;100920.45;;;17.29;28.47
67803;BME280;54601;51.378;-1.342;2022-12-07T07:31:07;100923.35;;;17.50;28.21
67803;BME280;54601;51.378;-1.342;2022-12-07T07:33:33;100921.57;;;17.34;28.43
67803;BME280;54601;51.378;-1.342;2022-12-07T07:35:58;100918.86;;;17.35;28.36
67803;BME280;54601;51.378;-1.342;2022-12-07T07:38:23;100922.33;;;17.47;28.21
67803;BME280;54601;51.378;-1.342;2022-12-07T07:40:49;100922.19;;;17.48;28.25
67803;BME280;54601;51.378;-1.342;2022-12-07T07:43:14;100921.39;;;17.40;28.34
67803;BME280;54601;51.378;-1.342;2022-12-07T07:45:39;100923.39;;;17.37;28.37
67803;BME280;54601;51.378;-1.342;2022-12-07T07:48:05;100925.52;;;17.33;28.33
67803;BME280;54601;51.378;-1.342;2022-12-07T07:50:30;100922.34;;;17.47;28.28
67803;BME280;54601;51.378;-1.342;2022-12-07T07:52:57;100922.95;;;17.49;28.21
67803;BME280;54601;51.378;-1.342;2022-12-07T07:55:20;100921.78;;;17.54;28.21
67803;BME280;54601;51.378;-1.342;2022-12-07T07:57:45;100920.76;;;17.69;28.00
67803;BME280;54601;51.378;-1.342;2022-12-07T08:00:13;100914.79;;;17.57;28.16
67803;BME280;54601;51.378;-1.342;2022-12-07T08:02:36;100916.85;;;17.66;28.09
67803;BME280;54601;51.378;-1.342;2022-12-07T08:05:01;100925.77;;;17.70;28.01
67803;BME280;54601;51.378;-1.342;2022-12-07T08:07:27;100928.90;;;17.67;27.97
67803;BME280;54601;51.378;-1.342;2022-12-07T08:09:52;100933.06;;;17.58;28.16
67803;BME280;54601;51.378;-1.342;2022-12-07T08:12:17;100928.52;;;17.57;28.07
67803;BME280;54601;51.378;-1.342;2022-12-07T08:14:42;100929.26;;;17.65;28.10
67803;BME280;54601;51.378;-1.342;2022-12-07T08:17:07;100928.14;;;17.49;28.24
67803;BME280;54601;51.378;-1.342;2022-12-07T08:19:33;100930.10;;;17.57;28.15
67803;BME280;54601;51.378;-1.342;2022-12-07T08:21:58;100932.91;;;17.35;28.16
67803;BME280;54601;51.378;-1.342;2022-12-07T08:24:24;100932.94;;;17.62;28.09
67803;BME280;54601;51.378;-1.342;2022-12-07T08:26:48;100932.48;;;17.54;28.22
67803;BME280;54601;51.378;-1.342;2022-12-07T08:29:13;100931.43;;;17.55;28.21
67803;BME280;54601;51.378;-1.342;2022-12-07T08:31:38;100934.34;;;17.49;28.19
67803;BME280;54601;51.378;-1.342;2022-12-07T08:34:04;100933.46;;;17.59;28.22
67803;BME280;54601;51.378;-1.342;2022-12-07T08:36:29;100934.30;;;17.65;28.05
67803;BME280;54601;51.378;-1.342;2022-12-07T08:38:54;100930.75;;;17.56;28.15
67803;BME280;54601;51.378;-1.342;2022-12-07T08:41:19;100932.86;;;17.59;28.15
67803;BME280;54601;51.378;-1.342;2022-12-07T08:43:45;100935.62;;;17.53;28.17
67803;BME280;54601;51.378;-1.342;2022-12-07T08:46:13;100939.30;;;17.68;27.99
67803;BME280;54601;51.378;-1.342;2022-12-07T08:48:39;100940.75;;;17.63;28.07
67803;BME280;54601;51.378;-1.342;2022-12-07T08:51:01;100936.53;;;17.63;27.98
67803;BME280;54601;51.378;-1.342;2022-12-07T08:53:26;100932.68;;;17.60;28.07
67803;BME280;54601;51.378;-1.342;2022-12-07T08:55:51;100931.94;;;17.61;28.12
67803;BME280;54601;51.378;-1.342;2022-12-07T08:58:16;100932.09;;;17.64;28.03
67803;BME280;54601;51.378;-1.342;2022-12-07T09:00:41;100932.59;;;17.71;27.88
67803;BME280;54601;51.378;-1.342;2022-12-07T09:03:06;100929.82;;;17.39;28.04
67803;BME280;54601;51.378;-1.342;2022-12-07T09:05:32;100931.07;;;17.62;28.00
67803;BME280;54601;51.378;-1.342;2022-12-07T09:08:00;100929.48;;;17.69;27.94
67803;BME280;54601;51.378;-1.342;2022-12-07T09:10:22;100929.49;;;17.37;28.07
67803;BME280;54601;51.378;-1.342;2022-12-07T09:12:47;100930.07;;;17.53;28.17
67803;BME280;54601;51.378;-1.342;2022-12-07T09:15:12;100933.10;;;17.69;27.97
67803;BME280;54601;51.378;-1.342;2022-12-07T09:17:38;100934.07;;;17.69;27.95
67803;BME280;54601;51.378;-1.342;2022-12-07T09:20:04;100933.94;;;17.64;27.95
67803;BME280;54601;51.378;-1.342;2022-12-07T09:22:29;100933.51;;;17.66;27.99
67803;BME280;54601;51.378;-1.342;2022-12-07T09:24:53;100933.13;;;17.61;28.09
67803;BME280;54601;51.378;-1.342;2022-12-07T09:27:19;100934.05;;;17.74;27.87
67803;BME280;54601;51.378;-1.342;2022-12-07T09:29:44;100933.14;;;17.82;27.72
67803;BME280;54601;51.378;-1.342;2022-12-07T09:32:09;100934.61;;;17.63;28.01
67803;BME280;54601;51.378;-1.342;2022-12-07T09:34:34;100932.62;;;17.70;28.00
67803;BME280;54601;51.378;-1.342;2022-12-07T09:37:01;100932.84;;;17.80;27.90
67803;BME280;54601;51.378;-1.342;2022-12-07T09:39:25;100931.76;;;17.67;28.09
67803;BME280;54601;51.378;-1.342;2022-12-07T09:41:50;100927.09;;;17.54;28.25
67803;BME280;54601;51.378;-1.342;2022-12-07T09:44:25;100923.13;;;17.64;28.13
67803;BME280;54601;51.378;-1.342;2022-12-07T09:46:42;100921.67;;;17.63;28.20
67803;BME280;54601;51.378;-1.342;2022-12-07T09:49:12;100925.17;;;17.82;28.25
67803;BME280;54601;51.378;-1.342;2022-12-07T09:51:31;100927.17;;;17.70;28.29
67803;BME280;54601;51.378;-1.342;2022-12-07T09:53:57;100928.54;;;17.70;28.30
67803;BME280;54601;51.378;-1.342;2022-12-07T09:56:22;100928.59;;;17.73;28.27
67803;BME280;54601;51.378;-1.342;2022-12-07T09:58:47;100927.92;;;17.98;28.18
67803;BME280;54601;51.378;-1.342;2022-12-07T10:01:14;100931.46;;;17.72;28.35
67803;BME280;54601;51.378;-1.342;2022-12-07T10:03:38;100933.18;;;17.78;28.31
67803;BME280;54601;51.378;-1.342;2022-12-07T10:06:03;100930.25;;;17.59;28.27
67803;BME280;54601;51.378;-1.342;2022-12-07T10:08:27;100927.84;;;17.83;28.38
67803;BME280;54601;51.378;-1.342;2022-12-07T10:10:54;100927.00;;;17.62;28.34
67803;BME280;54601;51.378;-1.342;2022-12-07T10:13:21;100923.27;;;17.85;28.45
67803;BME280;54601;51.378;-1.342;2022-12-07T10:15:47;100925.58;;;17.89;28.45
67803;BME280;54601;51.378;-1.342;2022-12-07T10:18:18;100924.87;;;17.68;28.47
67803;BME280;54601;51.378;-1.342;2022-12-07T10:20:34;100921.00;;;17.70;28.46
67803;BME280;54601;51.378;-1.342;2022-12-07T10:23:02;100918.84;;;18.10;28.36
67803;BME280;54601;51.378;-1.342;2022-12-07T10:25:27;100917.97;;;17.78;28.42
67803;BME280;54601;51.378;-1.342;2022-12-07T10:27:58;100915.05;;;18.09;28.42
67803;BME280;54601;51.378;-1.342;2022-12-07T10:30:15;100909.36;;;18.10;28.36
67803;BME280;54601;51.378;-1.342;2022-12-07T10:32:40;100900.85;;;18.00;28.50
67803;BME280;54601;51.378;-1.342;2022-12-07T10:37:36;100893.25;;;18.15;28.36
67803;BME280;54601;51.378;-1.342;2022-12-07T10:39:56;100894.02;;;18.15;28.41
67803;BME280;54601;51.378;-1.342;2022-12-07T10:42:22;100887.09;;;18.18;28.41
67803;BME280;54601;51.378;-1.342;2022-12-07T10:44:47;100883.14;;;17.84;28.45
67803;BME280;54601;51.378;-1.342;2022-12-07T10:47:21;100881.85;;;17.95;28.34
67803;BME280;54601;51.378;-1.342;2022-12-07T10:49:49;100878.81;;;18.07;28.19
67803;BME280;54601;51.378;-1.342;2022-12-07T10:52:05;100874.71;;;18.28;28.05
67803;BME280;54601;51.378;-1.342;2022-12-07T10:54:34;100869.59;;;18.13;28.27
67803;BME280;54601;51.378;-1.342;2022-12-07T10:57:02;100870.50;;;18.19;28.24
67803;BME280;54601;51.378;-1.342;2022-12-07T11:01:48;100871.59;;;18.12;28.33
67803;BME280;54601;51.378;-1.342;2022-12-07T11:04:18;100866.48;;;18.03;28.46
67803;BME280;54601;51.378;-1.342;2022-12-07T11:06:35;100867.57;;;18.12;28.47
67803;BME280;54601;51.378;-1.342;2022-12-07T11:09:08;100865.64;;;18.13;28.44
67803;BME280;54601;51.378;-1.342;2022-12-07T11:11:27;100862.73;;;17.93;28.37
67803;BME280;54601;51.378;-1.342;2022-12-07T11:13:54;100860.82;;;18.19;28.46
67803;BME280;54601;51.378;-1.342;2022-12-07T11:16:21;100859.62;;;18.27;28.33
67803;BME280;54601;51.378;-1.342;2022-12-07T11:18:46;100857.54;;;18.45;28.12
67803;BME280;54601;51.378;-1.342;2022-12-07T11:21:09;100853.53;;;18.45;28.02
67803;BME280;54601;51.378;-1.342;2022-12-07T11:23:38;100851.94;;;18.53;27.89
67803;BME280;54601;51.378;-1.342;2022-12-07T11:25:59;100849.92;;;18.56;27.88
67803;BME280;54601;51.378;-1.342;2022-12-07T11:28:28;100844.55;;;18.48;27.93
67803;BME280;54601;51.378;-1.342;2022-12-07T11:30:49;100840.77;;;18.19;27.97
67803;BME280;54601;51.378;-1.342;2022-12-07T11:33:17;100834.74;;;18.11;28.00
67803;BME280;54601;51.378;-1.342;2022-12-07T11:35:43;100836.60;;;18.44;27.90
67803;BME280;54601;51.378;-1.342;2022-12-07T11:38:12;100833.17;;;18.44;27.96
67803;BME280;54601;51.378;-1.342;2022-12-07T11:40:28;100827.89;;;18.39;27.99
67803;BME280;54601;51.378;-1.342;2022-12-07T11:42:55;100822.43;;;18.06;28.01
67803;BME280;54601;51.378;-1.342;2022-12-07T11:45:19;100820.77;;;18.10;27.96
67803;BME280;54601;51.378;-1.342;2022-12-07T11:47:46;100820.15;;;18.08;28.04
67803;BME280;54601;51.378;-1.342;2022-12-07T11:52:38;100816.87;;;17.99;28.11
67803;BME280;54601;51.378;-1.342;2022-12-07T11:54:57;100815.65;;;18.29;28.03
67803;BME280;54601;51.378;-1.342;2022-12-07T11:57:26;100812.70;;;18.25;28.08
67803;BME280;54601;51.378;-1.342;2022-12-07T11:59:50;100807.96;;;18.21;28.13
67803;BME280;54601;51.378;-1.342;2022-12-07T12:02:15;100806.75;;;18.03;27.99
67803;BME280;54601;51.378;-1.342;2022-12-07T12:04:48;100801.55;;;18.25;28.05
67803;BME280;54601;51.378;-1.342;2022-12-07T12:07:03;100801.19;;;17.91;28.11
67803;BME280;54601;51.378;-1.342;2022-12-07T12:09:31;100797.58;;;18.23;28.04
67803;BME280;54601;51.378;-1.342;2022-12-07T12:12:07;100797.69;;;18.12;28.18
67803;BME280;54601;51.378;-1.342;2022-12-07T12:14:30;100795.99;;;18.01;27.95
67803;BME280;54601;51.378;-1.342;2022-12-07T12:16:57;100793.42;;;18.24;28.00
67803;BME280;54601;51.378;-1.342;2022-12-07T12:19:20;100786.96;;;18.34;27.88
67803;BME280;54601;51.378;-1.342;2022-12-07T12:21:34;100788.06;;;18.39;27.81
67803;BME280;54601;51.378;-1.342;2022-12-07T12:24:00;100779.17;;;18.39;27.82
67803;BME280;54601;51.378;-1.342;2022-12-07T12:26:25;100776.04;;;18.36;27.82
67803;BME280;54601;51.378;-1.342;2022-12-07T12:28:54;100769.74;;;17.85;27.87
67803;BME280;54601;51.378;-1.342;2022-12-07T12:31:15;100767.18;;;18.00;27.90
67803;BME280;54601;51.378;-1.342;2022-12-07T12:33:43;100764.15;;;18.27;27.94
67803;BME280;54601;51.378;-1.342;2022-12-07T12:38:32;100756.52;;;18.42;27.70
67803;BME280;54601;51.378;-1.342;2022-12-07T12:40:54;100756.83;;;18.08;27.80
67803;BME280;54601;51.378;-1.342;2022-12-07T12:45:44;100755.77;;;18.25;27.89